This is the latest recevied weather packets stored in our database for station/object OK1TOM-6. If no packets are shown the sender has not sent any weather packets the latest 10 day(s).
| Time | Temp. | Humidity | Pressure | Rain* | Wind** | Luminosity | Snow |
|---|---|---|---|---|---|---|---|
| 1778001968 | 15.56° C | 79% | 1007.9 hPa | 0 mm | - | - | - |
| 1778001365 | 15.56° C | 78% | 1008.1 hPa | 0 mm | - | - | - |
| 1778000761 | 16.11° C | 76% | 1008.1 hPa | 0 mm | - | - | - |
| 1778000158 | 16.11° C | 74% | 1008.3 hPa | 0 mm | - | - | - |
| 1777999555 | 16.67° C | 71% | 1008.4 hPa | 0 mm | - | - | - |
| 1777998951 | 16.67° C | 70% | 1008.4 hPa | 0 mm | - | - | - |
| 1777998348 | 16.67° C | 70% | 1008.6 hPa | 0 mm | - | - | - |
| 1777997744 | 16.67° C | 70% | 1008.8 hPa | 0 mm | - | - | - |
| 1777997141 | 16.67° C | 69% | 1008.7 hPa | 0 mm | - | - | - |
| 1777996537 | 16.67° C | 69% | 1008.8 hPa | 0 mm | - | - | - |
| 1777995934 | 16.67° C | 69% | 1009 hPa | 0 mm | - | - | - |
| 1777995330 | 17.22° C | 69% | 1009 hPa | 0 mm | - | - | - |
| 1777994727 | 17.22° C | 71% | 1009.1 hPa | 0 mm | - | - | - |
| 1777994124 | 17.78° C | 70% | 1009.3 hPa | 0 mm | - | - | - |
| 1777993520 | 17.22° C | 70% | 1009.2 hPa | 0 mm | - | - | - |
| 1777992917 | 17.22° C | 69% | 1009.3 hPa | 0 mm | - | - | - |
| 1777992374 | 17.78° C | 69% | 1009.3 hPa | 0 mm | - | - | - |
| 1777991770 | 18.33° C | 67% | 1009.3 hPa | 0 mm | - | - | - |
| 1777991167 | 18.89° C | 63% | 1009.2 hPa | 0 mm | - | - | - |
| 1777990563 | 19.44° C | 60% | 1009.3 hPa | 0 mm | - | - | - |
| 1777989960 | 19.44° C | 60% | 1009.5 hPa | 0 mm | - | - | - |
| 1777989356 | 20° C | 59% | 1009.6 hPa | 0 mm | - | - | - |
| 1777988753 | 19.44° C | 60% | 1009.7 hPa | 0 mm | - | - | - |
| 1777988149 | 18.89° C | 61% | 1009.6 hPa | 0 mm | - | - | - |
| 1777987546 | 19.44° C | 58% | 1009.6 hPa | 0 mm | - | - | - |
* Rain latest hour (hover to see other rain measurements)
** Current wind speed in m/s (hover to see current wind gust speed)